Time;durP1;ratioP1;P1;durP2;ratioP2;P2;SDS_P1;SDS_P2;PMS_P1;PMS_P2;Temp;Humidity;BMP_temperature;BMP_pressure;BME280_temperature;BME280_humidity;BME280_pressure;Samples;Min_cycle;Max_cycle;Signal;HPM_P1;HPM_P2
2021/12/01 00:01:41;;;;;;;16.23;7.10;;;;;;;8.94;95.54;102520.31;4793830;29;20505;-90
2021/12/01 00:04:10;;;;;;;19.47;8.93;;;;;;;8.85;95.55;102521.13;4797764;29;20457;-90
2021/12/01 00:06:44;;;;;;;15.70;7.60;;;;;;;8.73;95.93;102519.53;4815363;29;20792;-89
2021/12/01 00:09:14;;;;;;;11.17;4.43;;;;;;;8.62;96.16;102504.16;4805697;29;20444;-90
2021/12/01 00:11:44;;;;;;;12.03;3.27;;;;;;;8.57;95.46;102506.41;4800033;29;20452;-90
2021/12/01 00:14:15;;;;;;;4.33;2.47;;;;;;;8.56;96.06;102512.88;4830833;29;20452;-90
2021/12/01 00:16:42;;;;;;;4.23;1.93;;;;;;;8.64;96.56;102512.19;4813626;29;20472;-90
2021/12/01 00:19:11;;;;;;;9.80;2.50;;;;;;;8.60;96.12;102499.84;4799073;29;20513;-90
2021/12/01 00:21:40;;;;;;;1.90;1.70;;;;;;;8.60;95.85;102508.00;4810804;29;20487;-90
2021/12/01 00:24:08;;;;;;;3.50;2.00;;;;;;;8.57;96.34;102500.09;4829624;29;20969;-90
2021/12/01 00:26:36;;;;;;;4.40;2.77;;;;;;;8.64;96.79;102506.75;4844549;29;20460;-90
2021/12/01 00:29:05;;;;;;;7.23;3.73;;;;;;;8.66;96.41;102505.59;4814981;29;20517;-90
2021/12/01 00:31:32;;;;;;;7.50;4.20;;;;;;;8.61;95.80;102496.97;4826561;29;20452;-90
2021/12/01 00:34:01;;;;;;;8.10;4.20;;;;;;;8.67;96.30;102501.00;4825748;29;20810;-90
2021/12/01 00:36:29;;;;;;;5.63;3.23;;;;;;;8.71;95.73;102498.84;4811501;29;20967;-91
2021/12/01 00:39:03;;;;;;;4.03;2.23;;;;;;;8.66;95.79;102489.22;4811131;29;20446;-90
2021/12/01 00:41:37;;;;;;;5.67;2.50;;;;;;;8.60;95.24;102494.38;4811638;29;21091;-90
2021/12/01 00:44:07;;;;;;;3.60;1.80;;;;;;;8.56;95.38;102490.22;4811295;29;20449;-90
2021/12/01 00:46:42;;;;;;;5.27;3.33;;;;;;;8.51;95.73;102487.03;4812872;29;20560;-91
2021/12/01 00:49:15;;;;;;;10.47;3.10;;;;;;;8.55;95.99;102499.38;4830611;29;20483;-90
2021/12/01 00:51:44;;;;;;;3.53;1.97;;;;;;;8.52;96.28;102483.31;4799798;29;20814;-90
2021/12/01 00:54:12;;;;;;;3.30;1.53;;;;;;;8.47;95.79;102480.13;4799786;29;20492;-89
2021/12/01 00:56:44;;;;;;;1.77;1.17;;;;;;;8.45;96.55;102474.84;4813767;29;20453;-94
2021/12/01 00:59:12;;;;;;;4.17;1.73;;;;;;;8.43;96.25;102486.88;4830193;29;20429;-90
2021/12/01 01:01:41;;;;;;;10.33;2.93;;;;;;;8.42;96.11;102475.09;4813923;29;20493;-90
2021/12/01 01:04:09;;;;;;;3.40;1.70;;;;;;;8.44;96.91;102477.69;4814640;29;20955;-91
2021/12/01 01:06:37;;;;;;;4.00;1.40;;;;;;;8.44;96.20;102472.25;4811666;29;20515;-90
2021/12/01 01:09:05;;;;;;;1.83;1.07;;;;;;;8.42;96.51;102469.66;4796433;29;20540;-90
2021/12/01 01:17:12;;;;;;;9.83;3.00;;;;;;;8.27;96.94;102460.94;4804893;29;20544;-90
2021/12/01 01:19:47;;;;;;;6.93;2.97;;;;;;;8.21;96.36;102455.19;4811798;29;20461;-92
2021/12/01 01:22:15;;;;;;;5.17;2.53;;;;;;;8.20;95.55;102459.78;4812361;29;20488;-90
2021/12/01 01:24:44;;;;;;;8.07;3.13;;;;;;;8.12;94.62;102461.44;4797292;29;20464;-90
2021/12/01 01:27:11;;;;;;;5.60;2.97;;;;;;;8.05;94.83;102455.69;4798707;29;20496;-90
2021/12/01 01:29:40;;;;;;;5.50;2.70;;;;;;;8.08;95.15;102465.47;4814002;29;20452;-89
2021/12/01 01:32:08;;;;;;;7.67;3.67;;;;;;;8.09;95.14;102476.19;4810413;29;20453;-90
2021/12/01 01:34:37;;;;;;;6.63;2.63;;;;;;;8.01;95.12;102465.13;4825735;29;20961;-90
2021/12/01 01:37:05;;;;;;;6.57;2.97;;;;;;;7.92;95.11;102463.19;4812732;29;20540;-90
2021/12/01 01:39:33;;;;;;;9.83;3.07;;;;;;;7.85;95.06;102459.31;4813861;29;20468;-90
2021/12/01 01:42:01;;;;;;;6.20;2.07;;;;;;;7.91;95.25;102464.19;4812649;29;20492;-91
2021/12/01 01:44:35;;;;;;;10.97;3.40;;;;;;;7.88;95.22;102475.38;4798701;29;20465;-90
2021/12/01 01:47:05;;;;;;;8.73;3.70;;;;;;;7.87;95.25;102469.06;4813165;29;20451;-90
2021/12/01 01:52:07;;;;;;;7.97;3.67;;;;;;;7.78;95.53;102458.09;4815048;29;20951;-91
2021/12/01 01:54:36;;;;;;;10.20;3.77;;;;;;;7.89;95.96;102466.19;4825006;29;20453;-91
2021/12/01 01:57:06;;;;;;;12.30;4.10;;;;;;;7.85;96.17;102459.31;4823566;29;20640;-91
2021/12/01 01:59:36;;;;;;;12.00;4.37;;;;;;;7.84;95.74;102457.56;4825438;29;20961;-91
2021/12/01 02:02:12;;;;;;;12.47;4.63;;;;;;;7.83;95.62;102462.16;4825654;29;20544;-91
2021/12/01 02:04:40;;;;;;;13.07;4.57;;;;;;;7.76;95.48;102460.97;4813703;29;20551;-90
2021/12/01 02:07:14;;;;;;;8.10;3.90;;;;;;;7.84;95.96;102466.59;4806827;29;20457;-90
2021/12/01 02:09:42;;;;;;;8.57;3.70;;;;;;;7.86;95.53;102458.31;4789315;29;20448;-90
2021/12/01 02:12:10;;;;;;;8.40;3.50;;;;;;;7.84;94.74;102460.31;4810154;29;20484;-90
2021/12/01 02:14:38;;;;;;;4.23;2.20;;;;;;;7.65;95.28;102446.56;4809774;29;20544;-90
2021/12/01 02:17:07;;;;;;;2.73;1.30;;;;;;;7.69;95.66;102458.91;4822668;29;20508;-90
2021/12/01 02:19:38;;;;;;;3.47;1.27;;;;;;;7.57;95.56;102444.50;4811241;29;20862;-90
2021/12/01 02:22:08;;;;;;;5.37;1.77;;;;;;;7.68;95.94;102457.19;4812519;29;20485;-91
2021/12/01 02:24:38;;;;;;;4.00;2.20;;;;;;;7.73;95.79;102466.66;4824906;29;20441;-90
2021/12/01 02:27:06;;;;;;;4.20;2.53;;;;;;;7.73;95.34;102452.19;4812802;29;20456;-91
2021/12/01 02:29:36;;;;;;;7.23;2.90;;;;;;;7.65;95.28;102449.28;4811831;29;20467;-89
2021/12/01 02:32:04;;;;;;;6.77;2.07;;;;;;;7.65;95.13;102460.19;4811981;29;20968;-89
2021/12/01 02:34:38;;;;;;;4.97;2.30;;;;;;;7.56;94.95;102449.06;4812857;29;20815;-89
2021/12/01 02:37:06;;;;;;;4.13;1.73;;;;;;;7.51;95.33;102448.59;4799154;29;20610;-89
2021/12/01 02:39:38;;;;;;;2.80;1.70;;;;;;;7.59;95.30;102456.13;4828037;29;20475;-90
2021/12/01 02:42:08;;;;;;;7.37;1.30;;;;;;;7.34;94.89;102427.44;4827387;29;20519;-91
2021/12/01 02:44:38;;;;;;;3.10;1.37;;;;;;;7.38;96.22;102450.66;4827660;29;20921;-90
2021/12/01 02:47:06;;;;;;;4.77;1.30;;;;;;;7.35;95.86;102429.16;4823655;29;20881;-90
2021/12/01 02:49:39;;;;;;;2.50;1.50;;;;;;;7.52;96.25;102442.16;4794612;29;20456;-90
2021/12/01 02:52:07;;;;;;;3.73;1.97;;;;;;;7.52;95.43;102442.16;4797118;29;20540;-90
2021/12/01 02:54:35;;;;;;;7.27;2.97;;;;;;;7.47;94.66;102441.72;4824475;29;20860;-91
2021/12/01 02:57:03;;;;;;;7.50;3.20;;;;;;;7.40;94.64;102432.34;4824999;29;20870;-90
2021/12/01 02:59:31;;;;;;;7.83;3.77;;;;;;;7.40;94.63;102455.97;4809049;29;20457;-90
2021/12/01 03:02:06;;;;;;;7.20;2.87;;;;;;;7.33;94.32;102452.91;4813928;29;20480;-90
2021/12/01 03:04:35;;;;;;;11.07;2.80;;;;;;;7.21;94.46;102437.63;4812652;29;20465;-90
2021/12/01 03:07:08;;;;;;;9.20;2.73;;;;;;;7.28;94.83;102452.44;4826730;29;20466;-91
2021/12/01 03:09:41;;;;;;;9.13;4.23;;;;;;;7.29;95.25;102454.19;4842321;29;20959;-90
2021/12/01 03:12:09;;;;;;;10.50;4.37;;;;;;;7.26;94.73;102451.72;4827176;29;20444;-90
2021/12/01 03:14:37;;;;;;;9.50;3.40;;;;;;;7.23;94.84;102435.66;4797787;29;20468;-90
2021/12/01 03:17:05;;;;;;;14.57;3.60;;;;;;;7.24;94.57;102445.53;4808240;29;20500;-90
2021/12/01 03:19:33;;;;;;;9.40;3.40;;;;;;;7.27;94.70;102438.00;4808959;29;20480;-90
2021/12/01 03:22:03;;;;;;;7.73;3.93;;;;;;;7.12;94.63;102422.13;4808563;29;20485;-91
2021/12/01 03:24:37;;;;;;;9.87;3.83;;;;;;;7.19;94.77;102436.91;4808847;29;20937;-90
2021/12/01 03:27:06;;;;;;;12.80;4.77;;;;;;;7.10;94.75;102432.25;4815185;29;20460;-89
2021/12/01 03:29:35;;;;;;;12.23;3.73;;;;;;;7.10;94.68;102434.97;4811898;29;20653;-91
2021/12/01 03:32:03;;;;;;;14.10;6.20;;;;;;;6.98;95.02;102416.97;4812217;29;20460;-89
2021/12/01 03:34:32;;;;;;;12.20;4.73;;;;;;;7.02;94.88;102421.16;4796517;29;20484;-90
2021/12/01 03:37:09;;;;;;;6.83;3.37;;;;;;;7.05;94.85;102424.50;4812039;29;20453;-90
2021/12/01 03:39:37;;;;;;;10.17;2.93;;;;;;;6.96;94.71;102406.22;4795663;29;20448;-90
2021/12/01 03:42:05;;;;;;;8.53;3.30;;;;;;;7.00;94.56;102418.56;4797591;29;20488;-90
2021/12/01 03:44:33;;;;;;;7.40;3.63;;;;;;;6.84;94.68;102401.84;4797544;29;20453;-90
2021/12/01 03:47:02;;;;;;;9.20;3.80;;;;;;;6.92;95.12;102416.50;4796269;29;20957;-90
2021/12/01 03:49:29;;;;;;;9.20;3.70;;;;;;;7.00;95.28;102423.13;4798004;29;20925;-90
2021/12/01 03:51:57;;;;;;;17.70;4.30;;;;;;;6.98;94.96;102415.13;4800360;29;20484;-90
2021/12/01 03:54:26;;;;;;;10.80;3.60;;;;;;;6.96;94.79;102405.38;4815568;29;20480;-89
2021/12/01 03:56:55;;;;;;;16.63;3.67;;;;;;;7.02;94.65;102418.44;4810766;29;20509;-90
2021/12/01 03:59:22;;;;;;;6.43;3.10;;;;;;;6.87;94.39;102405.16;4797322;29;20873;-90
2021/12/01 04:01:51;;;;;;;5.10;1.90;;;;;;;6.90;94.00;102423.94;4797946;29;21060;-90
2021/12/01 04:04:21;;;;;;;3.93;1.53;;;;;;;6.73;94.66;102397.31;4812201;29;20944;-90
2021/12/01 04:06:52;;;;;;;5.10;2.03;;;;;;;6.78;94.89;102414.06;4815104;29;20452;-90
2021/12/01 04:09:20;;;;;;;6.37;2.93;;;;;;;6.81;94.75;102423.81;4845265;29;20812;-91
2021/12/01 04:11:48;;;;;;;3.70;2.37;;;;;;;6.81;95.60;102415.69;4827027;29;20449;-90
2021/12/01 04:14:15;;;;;;;16.10;3.97;;;;;;;6.82;95.05;102418.25;4826931;29;20465;-91
2021/12/01 04:16:43;;;;;;;8.13;2.80;;;;;;;6.82;94.79;102420.13;4829652;29;20449;-90
2021/12/01 04:19:12;;;;;;;10.23;3.60;;;;;;;6.78;94.51;102424.94;4815141;29;20551;-90
2021/12/01 04:21:47;;;;;;;5.70;2.60;;;;;;;6.79;94.43;102423.94;4800673;29;20507;-91
2021/12/01 04:24:22;;;;;;;8.10;3.00;;;;;;;6.69;94.67;102404.00;4815469;29;20520;-91
2021/12/01 04:26:55;;;;;;;7.17;2.80;;;;;;;6.76;94.73;102413.34;4802159;29;20479;-90
2021/12/01 04:29:27;;;;;;;6.40;2.90;;;;;;;6.80;94.08;102422.97;4814394;29;20688;-91
2021/12/01 04:31:56;;;;;;;6.33;1.97;;;;;;;6.64;94.01;102417.09;4844702;29;21006;-92
2021/12/01 04:34:24;;;;;;;3.33;1.40;;;;;;;6.61;94.43;102411.91;4800389;29;20472;-91
2021/12/01 04:36:52;;;;;;;4.50;1.67;;;;;;;6.62;94.90;102413.63;4814661;29;20453;-90
2021/12/01 04:39:20;;;;;;;7.73;3.70;;;;;;;6.67;95.06;102418.69;4815261;29;21013;-91
2021/12/01 04:41:55;;;;;;;11.50;5.10;;;;;;;6.68;94.50;102424.00;4799656;29;20844;-90
2021/12/01 04:44:26;;;;;;;13.53;4.70;;;;;;;6.73;94.66;102419.06;4827695;29;20452;-91
2021/12/01 04:46:56;;;;;;;17.20;5.87;;;;;;;6.70;94.24;102413.88;4829618;29;20463;-91
2021/12/01 04:49:31;;;;;;;14.50;5.10;;;;;;;6.69;94.24;102414.84;4800113;29;20496;-90
2021/12/01 04:51:59;;;;;;;11.10;4.10;;;;;;;6.62;94.23;102397.31;4814136;29;20483;-90
2021/12/01 04:54:27;;;;;;;10.63;4.60;;;;;;;6.70;94.01;102402.13;4799676;29;20433;-90
2021/12/01 04:56:56;;;;;;;12.90;6.07;;;;;;;6.59;93.84;102403.88;4814167;29;20456;-91
2021/12/01 04:59:25;;;;;;;9.17;4.07;;;;;;;6.61;94.32;102411.03;4814968;29;20882;-91
2021/12/01 05:01:57;;;;;;;14.20;4.83;;;;;;;6.62;94.33;102419.06;4798973;29;21006;-90
2021/12/01 05:04:27;;;;;;;15.53;6.00;;;;;;;6.50;94.69;102406.50;4829418;29;20448;-91
2021/12/01 05:06:55;;;;;;;14.23;5.43;;;;;;;6.55;95.10;102413.25;4798601;29;20508;-90
2021/12/01 05:09:23;;;;;;;7.13;3.73;;;;;;;6.62;94.88;102420.91;4814145;29;20480;-90
2021/12/01 05:11:50;;;;;;;9.30;4.40;;;;;;;6.64;94.58;102424.38;4810386;29;20510;-90
2021/12/01 05:14:20;;;;;;;10.43;4.87;;;;;;;6.48;94.34;102405.75;4825648;29;20548;-89
2021/12/01 05:16:49;;;;;;;15.83;2.80;;;;;;;6.46;94.07;102418.59;4828817;29;20471;-89
2021/12/01 05:19:20;;;;;;;4.07;2.20;;;;;;;6.47;94.83;102423.03;4814510;29;20432;-90
2021/12/01 05:21:49;;;;;;;10.13;2.77;;;;;;;6.48;94.64;102416.63;4828586;29;20488;-90
2021/12/01 05:24:17;;;;;;;6.60;3.30;;;;;;;6.47;94.43;102412.19;4799420;29;20440;-90
2021/12/01 05:26:45;;;;;;;4.07;1.90;;;;;;;6.45;93.87;102411.44;4820823;29;20493;-90
2021/12/01 05:29:16;;;;;;;4.40;1.97;;;;;;;6.45;94.20;102406.88;4813009;29;20819;-90
2021/12/01 05:31:43;;;;;;;4.70;2.30;;;;;;;6.45;94.25;102404.16;4824192;29;20467;-89
2021/12/01 05:34:11;;;;;;;5.20;3.00;;;;;;;6.46;94.09;102414.03;4790414;29;20480;-89
2021/12/01 05:36:39;;;;;;;10.37;3.67;;;;;;;6.47;94.05;102410.34;4795800;29;20469;-89
2021/12/01 05:39:08;;;;;;;7.63;4.10;;;;;;;6.46;94.17;102418.59;4813187;29;20444;-89
2021/12/01 05:41:38;;;;;;;6.70;2.60;;;;;;;6.38;94.28;102415.63;4797881;29;20582;-90
2021/12/01 05:44:07;;;;;;;14.27;3.70;;;;;;;6.32;93.90;102422.47;4813179;29;20433;-89
2021/12/01 05:46:35;;;;;;;13.70;3.83;;;;;;;6.35;94.40;102426.78;4794460;29;20506;-89
2021/12/01 05:49:05;;;;;;;12.83;4.10;;;;;;;6.33;94.39;102428.75;4792866;29;20968;-91
2021/12/01 05:51:34;;;;;;;17.67;3.87;;;;;;;6.28;94.40;102414.69;4813267;29;20448;-90
2021/12/01 05:54:02;;;;;;;8.27;3.97;;;;;;;6.28;94.28;102429.13;4813404;29;20480;-90
2021/12/01 05:56:31;;;;;;;3.90;1.70;;;;;;;6.19;94.25;102413.56;4813052;29;20456;-90
2021/12/01 05:58:58;;;;;;;6.00;2.73;;;;;;;6.21;93.58;102420.59;4828159;29;20456;-89
2021/12/01 06:01:27;;;;;;;4.13;2.10;;;;;;;6.10;93.40;102428.75;4799013;29;20856;-90
2021/12/01 06:03:54;;;;;;;6.97;2.43;;;;;;;6.00;94.56;102416.91;4812584;29;20448;-90
2021/12/01 06:06:24;;;;;;;4.90;2.53;;;;;;;6.22;95.40;102430.47;4827741;29;20551;-91
2021/12/01 06:08:55;;;;;;;10.17;3.80;;;;;;;6.27;94.16;102434.66;4843523;29;20487;-90
2021/12/01 06:11:26;;;;;;;19.80;5.60;;;;;;;6.22;94.32;102433.19;4827751;29;20992;-89
2021/12/01 06:13:56;;;;;;;27.70;6.50;;;;;;;6.11;94.14;102422.34;4825372;29;20457;-91
2021/12/01 06:16:25;;;;;;;7.60;2.90;;;;;;;6.11;94.39;102424.19;4797857;29;20524;-90
2021/12/01 06:18:55;;;;;;;7.67;2.87;;;;;;;6.04;94.69;102422.94;4813248;29;20488;-90
2021/12/01 06:21:23;;;;;;;11.43;4.47;;;;;;;6.13;94.58;102444.81;4813515;29;20444;-91
2021/12/01 06:23:56;;;;;;;7.93;4.20;;;;;;;6.06;94.55;102435.41;4814132;29;20460;-91
2021/12/01 06:26:24;;;;;;;9.47;4.37;;;;;;;6.11;94.58;102441.34;4813541;29;20868;-90
2021/12/01 06:28:56;;;;;;;10.57;4.40;;;;;;;6.15;94.71;102447.41;4799455;29;20457;-90
2021/12/01 06:31:24;;;;;;;9.40;4.27;;;;;;;6.12;94.20;102436.78;4798391;29;20452;-91
2021/12/01 06:33:53;;;;;;;9.00;3.40;;;;;;;6.09;94.19;102443.31;4812968;29;20464;-91
2021/12/01 06:36:23;;;;;;;5.63;2.70;;;;;;;6.14;94.45;102449.25;4797500;29;20875;-91
2021/12/01 06:38:57;;;;;;;3.93;2.10;;;;;;;6.08;94.61;102463.28;4828478;29;20436;-91
2021/12/01 06:41:26;;;;;;;8.93;2.97;;;;;;;6.06;94.44;102448.13;4813215;29;20452;-92
2021/12/01 06:43:53;;;;;;;4.00;2.60;;;;;;;5.98;94.15;102442.41;4797977;29;20811;-91
2021/12/01 06:46:23;;;;;;;7.43;3.60;;;;;;;5.99;94.30;102444.16;4798129;29;20463;-91
2021/12/01 06:49:02;;;;;;;6.77;3.40;;;;;;;5.86;94.56;102427.97;4827543;29;20501;-91
2021/12/01 06:51:31;;;;;;;7.63;3.03;;;;;;;5.98;94.25;102435.16;4828404;29;20607;-91
2021/12/01 06:54:00;;;;;;;5.13;2.80;;;;;;;5.97;94.47;102455.13;4827817;29;20962;-91
2021/12/01 06:56:36;;;;;;;10.60;3.57;;;;;;;5.91;93.92;102455.63;4810461;29;20874;-91
2021/12/01 06:59:04;;;;;;;10.00;6.10;;;;;;;5.85;94.22;102450.66;4824038;29;20446;-90
2021/12/01 07:01:32;;;;;;;18.90;8.20;;;;;;;5.91;94.01;102465.63;4824019;29;20464;-90
2021/12/01 07:04:01;;;;;;;5.27;3.43;;;;;;;5.87;94.32;102454.09;4824694;29;20487;-90
2021/12/01 07:06:30;;;;;;;7.50;3.13;;;;;;;5.92;94.45;102456.50;4824481;29;20544;-91
2021/12/01 07:09:04;;;;;;;6.60;3.20;;;;;;;5.94;94.34;102447.25;4824520;29;20500;-90
2021/12/01 07:11:33;;;;;;;11.03;5.33;;;;;;;6.01;93.94;102466.59;4824538;29;20569;-91
2021/12/01 07:14:02;;;;;;;8.27;4.10;;;;;;;5.97;94.26;102465.13;4823679;29;20453;-90
2021/12/01 07:16:30;;;;;;;18.47;3.53;;;;;;;6.04;94.41;102469.94;4823946;29;20522;-90
2021/12/01 07:18:58;;;;;;;10.73;3.70;;;;;;;5.94;94.05;102470.81;4823886;29;20497;-90
2021/12/01 07:21:27;;;;;;;5.50;3.27;;;;;;;5.93;94.26;102469.94;4824092;29;20453;-90
2021/12/01 07:24:06;;;;;;;5.43;3.07;;;;;;;6.01;93.66;102480.19;4811304;29;20491;-91
2021/12/01 07:26:33;;;;;;;6.70;2.70;;;;;;;5.90;93.60;102475.63;4826098;29;20535;-91
2021/12/01 07:29:06;;;;;;;8.37;2.77;;;;;;;5.77;93.42;102480.25;4795775;29;20449;-90
2021/12/01 07:31:34;;;;;;;5.30;2.83;;;;;;;5.66;94.13;102469.34;4808878;29;20455;-91
2021/12/01 07:34:03;;;;;;;2.53;1.97;;;;;;;5.74;94.02;102486.78;4797690;29;20437;-90
2021/12/01 07:36:37;;;;;;;2.53;2.00;;;;;;;5.77;93.91;102493.81;4809417;29;20457;-90
2021/12/01 07:39:06;;;;;;;4.80;1.97;;;;;;;5.68;94.04;102470.09;4839170;29;20548;-91
2021/12/01 07:41:34;;;;;;;5.53;2.43;;;;;;;5.75;94.75;102487.66;4824409;29;20818;-91
2021/12/01 07:44:03;;;;;;;4.13;2.20;;;;;;;5.72;94.78;102471.59;4825996;29;20917;-91
2021/12/01 07:46:32;;;;;;;4.97;2.13;;;;;;;5.85;94.91;102483.22;4812622;29;20517;-90
2021/12/01 07:49:00;;;;;;;3.57;2.57;;;;;;;5.91;94.93;102484.63;4812457;29;20448;-91
2021/12/01 07:51:39;;;;;;;3.00;1.50;;;;;;;5.87;94.64;102489.38;4812387;29;20460;-91
2021/12/01 07:54:08;;;;;;;10.43;2.33;;;;;;;5.87;94.89;102481.25;4812800;29;20520;-91
2021/12/01 07:56:36;;;;;;;8.40;2.90;;;;;;;6.02;95.15;102496.34;4811471;29;20463;-90
2021/12/01 07:59:07;;;;;;;10.97;4.20;;;;;;;6.00;94.54;102483.88;4811222;29;20444;-90
2021/12/01 08:01:42;;;;;;;8.27;4.00;;;;;;;6.15;94.63;102501.69;4811574;29;20448;-91
2021/12/01 08:04:12;;;;;;;5.20;3.20;;;;;;;6.16;95.04;102496.09;4840987;29;20516;-90
2021/12/01 08:06:43;;;;;;;5.53;3.70;;;;;;;6.27;95.19;102491.69;4811499;29;20834;-91
2021/12/01 08:09:23;;;;;;;17.23;4.97;;;;;;;6.46;95.66;102503.66;4812169;29;20440;-91
2021/12/01 08:11:51;;;;;;;12.10;6.43;;;;;;;6.49;95.19;102497.13;4837161;29;20421;-91
2021/12/01 08:14:20;;;;;;;16.57;8.13;;;;;;;6.56;95.48;102499.19;4840675;29;20444;-90
2021/12/01 08:16:51;;;;;;;31.50;15.90;;;;;;;6.54;95.63;102486.75;4811712;29;20513;-91
2021/12/01 08:19:49;;;;;;;27.80;10.80;;;;;;;6.71;95.97;102505.25;4811376;29;20444;-91
2021/12/01 08:22:16;;;;;;;23.47;10.70;;;;;;;6.74;96.45;102498.69;4842315;29;20504;-91
2021/12/01 08:24:48;;;;;;;27.33;13.40;;;;;;;6.84;96.06;102491.50;4796412;29;20452;-91
2021/12/01 08:27:17;;;;;;;20.87;11.77;;;;;;;6.88;95.88;102496.56;4810779;29;20426;-91
2021/12/01 08:29:45;;;;;;;21.87;10.70;;;;;;;6.92;96.87;102500.78;4826347;29;20441;-92
2021/12/01 08:32:15;;;;;;;21.43;7.27;;;;;;;7.05;97.31;102510.63;4814291;29;20464;-91
2021/12/01 08:34:49;;;;;;;15.50;7.73;;;;;;;7.14;97.43;102512.56;4799842;29;20444;-90
2021/12/01 08:37:20;;;;;;;26.53;7.03;;;;;;;7.19;97.82;102515.75;4800794;29;20642;-91
2021/12/01 08:39:48;;;;;;;11.50;5.60;;;;;;;7.33;97.86;102523.63;4812737;29;20480;-90
2021/12/01 08:42:21;;;;;;;15.80;7.07;;;;;;;7.41;97.62;102521.13;4798245;29;20489;-89
2021/12/01 08:44:49;;;;;;;19.43;7.00;;;;;;;7.53;97.76;102524.66;4782475;29;20449;-90
2021/12/01 08:47:20;;;;;;;10.63;5.30;;;;;;;7.56;97.67;102516.22;4824065;29;20988;-90
2021/12/01 08:49:50;;;;;;;7.60;4.73;;;;;;;7.66;97.95;102519.03;4800440;29;20528;-88
2021/12/01 08:52:26;;;;;;;15.73;7.40;;;;;;;7.80;98.84;102525.03;4813458;29;20587;-90
2021/12/01 08:55:00;;;;;;;14.53;5.10;;;;;;;7.90;99.02;102522.34;4826784;29;20480;-88
2021/12/01 08:57:29;;;;;;;7.33;4.30;;;;;;;7.97;99.08;102518.13;4827038;29;20513;-90
2021/12/01 08:59:59;;;;;;;10.23;4.70;;;;;;;8.01;99.14;102516.84;4827339;29;20819;-90
2021/12/01 09:02:35;;;;;;;5.30;3.47;;;;;;;8.12;100.00;102511.31;4809012;29;20485;-93
2021/12/01 09:05:04;;;;;;;7.03;4.43;;;;;;;8.27;100.00;102529.03;4813014;29;20468;-93
2021/12/01 09:07:34;;;;;;;9.17;4.07;;;;;;;8.39;100.00;102531.72;4799122;29;20922;-93
2021/12/01 09:10:03;;;;;;;10.57;3.70;;;;;;;8.48;100.00;102522.72;4829628;29;20539;-93
2021/12/01 09:12:35;;;;;;;12.23;4.23;;;;;;;8.54;100.00;102520.31;4799661;29;20455;-93
2021/12/01 09:15:09;;;;;;;6.03;3.70;;;;;;;8.65;100.00;102513.94;4798994;29;20469;-93
2021/12/01 09:17:37;;;;;;;9.80;3.77;;;;;;;8.81;100.00;102521.56;4810317;29;20475;-93
2021/12/01 09:20:07;;;;;;;7.10;3.27;;;;;;;8.93;100.00;102521.31;4823752;29;20810;-93
2021/12/01 09:22:36;;;;;;;4.63;2.80;;;;;;;9.00;100.00;102500.69;4840835;29;20488;-91
2021/12/01 09:25:07;;;;;;;10.67;3.17;;;;;;;9.09;100.00;102511.72;4810969;29;20528;-93
2021/12/01 09:27:44;;;;;;;4.27;2.43;;;;;;;9.31;100.00;102520.53;4828562;29;20452;-93
2021/12/01 09:30:25;;;;;;;7.30;2.97;;;;;;;9.45;100.00;102521.97;4814402;29;20481;-93
2021/12/01 09:33:01;;;;;;;8.57;3.60;;;;;;;9.60;100.00;102520.56;4799019;29;20455;-93
2021/12/01 09:35:37;;;;;;;10.97;3.10;;;;;;;9.75;100.00;102509.19;4796956;29;20429;-93
2021/12/01 09:38:14;;;;;;;11.53;4.57;;;;;;;9.92;99.43;102519.38;4792058;29;20473;-93
2021/12/01 09:40:47;;;;;;;11.90;3.67;;;;;;;10.11;99.50;102511.13;4798520;29;20463;-93
2021/12/01 09:43:22;;;;;;;21.17;11.47;;;;;;;10.29;100.00;102501.19;4810821;29;20488;-93
2021/12/01 09:45:55;;;;;;;71.93;38.40;;;;;;;10.56;100.00;102508.59;4796450;29;20464;-93
2021/12/01 09:48:24;;;;;;;151.00;81.20;;;;;;;10.81;100.00;102507.00;4805340;29;20963;-94
2021/12/01 09:51:15;;;;;;;106.50;55.53;;;;;;;11.09;100.00;102499.66;4816980;29;20521;-94
2021/12/01 09:53:51;;;;;;;53.73;28.30;;;;;;;11.36;100.00;102509.66;4828662;29;20846;-93
2021/12/01 09:56:19;;;;;;;23.87;13.77;;;;;;;11.64;100.00;102508.59;4798854;29;20448;-93
2021/12/01 09:58:55;;;;;;;19.53;7.90;;;;;;;11.85;100.00;102496.47;4814025;29;20456;-93
2021/12/01 10:01:24;;;;;;;9.97;4.80;;;;;;;12.09;100.00;102493.91;4813955;29;20504;-93
2021/12/01 10:03:53;;;;;;;4.87;3.10;;;;;;;12.27;100.00;102486.50;4813730;29;20575;-94
2021/12/01 10:06:35;;;;;;;4.93;2.10;;;;;;;12.47;100.00;102481.63;4827494;29;20460;-93
2021/12/01 10:09:07;;;;;;;1.70;1.00;;;;;;;12.73;100.00;102500.75;4796698;29;20460;-94
2021/12/01 10:11:41;;;;;;;3.10;1.40;;;;;;;12.88;100.00;102490.03;4824570;29;20446;-90
2021/12/01 10:14:18;;;;;;;3.43;1.23;;;;;;;13.13;100.00;102500.91;4827003;29;20542;-93
2021/12/01 10:16:47;;;;;;;1.93;0.80;;;;;;;13.25;99.78;102486.91;4818279;29;20479;-91
2021/12/01 10:19:16;;;;;;;9.83;5.13;;;;;;;13.54;98.82;102512.00;4812299;29;20915;-94
2021/12/01 10:21:47;;;;;;;1.83;1.20;;;;;;;13.61;97.46;102490.22;4813257;29;20484;-93
2021/12/01 10:24:46;;;;;;;5.73;2.10;;;;;;;13.92;97.13;102509.59;4797897;29;20482;-94
2021/12/01 10:27:24;;;;;;;31.20;26.80;;;;;;;14.08;96.16;102509.59;4842647;29;20453;-95
2021/12/01 10:30:43;;;;;;;7.60;3.30;;;;;;;14.27;95.92;102509.22;4827833;29;20459;-95
2021/12/01 10:33:16;;;;;;;2.47;1.37;;;;;;;14.42;94.61;102501.16;4842348;29;20441;-92
2021/12/01 10:35:46;;;;;;;4.93;1.33;;;;;;;14.55;94.50;102501.47;4824570;29;20445;-94
2021/12/01 10:38:14;;;;;;;5.70;2.53;;;;;;;14.68;94.45;102499.00;4812173;29;20501;-91
2021/12/01 10:41:22;;;;;;;7.07;3.33;;;;;;;14.81;93.96;102506.69;4812565;29;20531;-93
2021/12/01 10:43:50;;;;;;;2.17;1.40;;;;;;;14.91;93.97;102496.31;4841767;29;20476;-88
2021/12/01 10:46:18;;;;;;;3.77;1.50;;;;;;;15.13;93.72;102483.63;4811694;29;20936;-87
2021/12/01 10:49:00;;;;;;;5.63;0.97;;;;;;;15.19;92.46;102478.28;4811687;29;20433;-88
2021/12/01 10:51:34;;;;;;;8.10;1.43;;;;;;;15.21;93.11;102487.19;4808294;29;20535;-87
2021/12/01 10:54:01;;;;;;;4.00;1.00;;;;;;;15.18;93.04;102482.06;4794914;29;20449;-88
2021/12/01 10:56:29;;;;;;;3.10;1.50;;;;;;;15.06;92.93;102471.63;4808019;29;20833;-89
2021/12/01 10:59:12;;;;;;;3.60;0.77;;;;;;;14.91;93.94;102463.28;4794041;29;20449;-90
2021/12/01 11:01:49;;;;;;;3.23;1.20;;;;;;;15.01;94.29;102463.06;4806713;29;20448;-92
2021/12/01 11:04:43;;;;;;;6.90;1.73;;;;;;;15.19;94.12;102458.13;4811366;29;20499;-90
2021/12/01 11:07:31;;;;;;;3.23;1.13;;;;;;;15.46;93.51;102451.19;4842750;29;20456;-91
2021/12/01 11:10:18;;;;;;;2.93;1.27;;;;;;;15.76;92.00;102447.56;4811168;29;20463;-89
2021/12/01 11:13:18;;;;;;;2.37;1.17;;;;;;;15.97;91.03;102448.75;4827138;29;20437;-90
2021/12/01 11:15:58;;;;;;;3.10;1.37;;;;;;;16.02;90.14;102451.75;4826656;29;20463;-90
2021/12/01 11:18:51;;;;;;;2.10;1.30;;;;;;;15.78;89.31;102445.44;4827526;29;20568;-88
2021/12/01 11:21:24;;;;;;;8.10;1.27;;;;;;;15.65;90.58;102441.59;4812041;29;20484;-87
2021/12/01 11:23:57;;;;;;;4.30;1.20;;;;;;;15.60;91.35;102444.91;4825507;29;20480;-87
2021/12/01 11:26:26;;;;;;;2.50;1.37;;;;;;;15.67;91.11;102440.38;4825367;29;20927;-88
2021/12/01 11:28:58;;;;;;;8.13;1.50;;;;;;;15.76;91.35;102433.78;4825108;29;20440;-90
2021/12/01 11:31:54;;;;;;;3.63;1.17;;;;;;;15.98;90.62;102447.66;4819475;29;20449;-88
2021/12/01 11:34:22;;;;;;;4.60;1.27;;;;;;;16.10;90.20;102443.41;4809761;29;20795;-88
2021/12/01 11:36:51;;;;;;;7.73;1.80;;;;;;;16.18;88.97;102429.53;4810069;29;20524;-87
2021/12/01 11:39:22;;;;;;;4.20;1.97;;;;;;;16.30;88.41;102433.53;4824569;29;20433;-88
2021/12/01 11:41:52;;;;;;;4.33;1.50;;;;;;;16.39;88.52;102435.13;4816445;29;20450;-88
2021/12/01 11:44:20;;;;;;;5.67;1.57;;;;;;;16.58;88.02;102429.03;4825152;29;20841;-88
2021/12/01 11:46:48;;;;;;;4.30;1.40;;;;;;;16.68;87.76;102441.72;4810061;29;20448;-87
2021/12/01 11:49:17;;;;;;;10.20;1.67;;;;;;;16.46;87.41;102438.84;4810566;29;20436;-88
2021/12/01 11:52:13;;;;;;;4.77;1.40;;;;;;;16.41;87.88;102443.22;4808527;29;20437;-87
2021/12/01 11:54:45;;;;;;;2.40;1.50;;;;;;;16.31;88.13;102424.22;4804062;29;20953;-87
2021/12/01 11:57:13;;;;;;;4.57;1.57;;;;;;;16.33;88.75;102429.53;4778840;29;20525;-87